sensor_id;sensor_type;location;lat;lon;timestamp;temperature;humidity
10051;DHT22;5065;46.942;7.432;2023-10-31T00:01:41;12.80;99.90
10051;DHT22;5065;46.942;7.432;2023-10-31T00:04:08;12.70;99.90
10051;DHT22;5065;46.942;7.432;2023-10-31T00:06:35;12.70;99.90
10051;DHT22;5065;46.942;7.432;2023-10-31T00:09:04;12.70;99.90
10051;DHT22;5065;46.942;7.432;2023-10-31T00:11:31;12.80;99.90
10051;DHT22;5065;46.942;7.432;2023-10-31T00:13:59;12.60;99.90
10051;DHT22;5065;46.942;7.432;2023-10-31T00:16:28;12.80;99.90
10051;DHT22;5065;46.942;7.432;2023-10-31T00:18:55;12.70;99.90
10051;DHT22;5065;46.942;7.432;2023-10-31T00:21:22;12.70;99.90
10051;DHT22;5065;46.942;7.432;2023-10-31T00:23:50;12.70;99.90
10051;DHT22;5065;46.942;7.432;2023-10-31T00:26:18;12.70;99.90
10051;DHT22;5065;46.942;7.432;2023-10-31T00:28:45;12.60;99.90
10051;DHT22;5065;46.942;7.432;2023-10-31T00:31:13;12.60;99.90
10051;DHT22;5065;46.942;7.432;2023-10-31T00:33:40;12.60;99.90
10051;DHT22;5065;46.942;7.432;2023-10-31T00:36:07;12.60;99.90
10051;DHT22;5065;46.942;7.432;2023-10-31T00:38:35;12.60;99.90
10051;DHT22;5065;46.942;7.432;2023-10-31T00:41:02;12.50;99.90
10051;DHT22;5065;46.942;7.432;2023-10-31T00:43:31;12.50;99.90
10051;DHT22;5065;46.942;7.432;2023-10-31T00:45:59;12.50;99.90
10051;DHT22;5065;46.942;7.432;2023-10-31T00:48:29;12.60;99.90
10051;DHT22;5065;46.942;7.432;2023-10-31T00:50:57;12.70;99.90
10051;DHT22;5065;46.942;7.432;2023-10-31T00:53:25;12.50;99.90
10051;DHT22;5065;46.942;7.432;2023-10-31T00:55:52;12.50;99.90
10051;DHT22;5065;46.942;7.432;2023-10-31T00:58:19;12.50;99.90
10051;DHT22;5065;46.942;7.432;2023-10-31T01:00:48;12.50;99.90
10051;DHT22;5065;46.942;7.432;2023-10-31T01:03:15;12.50;99.90
10051;DHT22;5065;46.942;7.432;2023-10-31T01:05:42;12.50;99.90
10051;DHT22;5065;46.942;7.432;2023-10-31T01:08:09;12.60;99.90
10051;DHT22;5065;46.942;7.432;2023-10-31T01:10:37;12.60;99.90
10051;DHT22;5065;46.942;7.432;2023-10-31T01:13:04;12.80;99.90
10051;DHT22;5065;46.942;7.432;2023-10-31T01:15:31;12.40;99.90
10051;DHT22;5065;46.942;7.432;2023-10-31T01:17:59;12.40;99.90
10051;DHT22;5065;46.942;7.432;2023-10-31T01:20:27;12.50;99.90
10051;DHT22;5065;46.942;7.432;2023-10-31T01:22:54;12.40;99.90
10051;DHT22;5065;46.942;7.432;2023-10-31T01:25:25;12.50;99.90
10051;DHT22;5065;46.942;7.432;2023-10-31T01:27:52;12.30;99.90
10051;DHT22;5065;46.942;7.432;2023-10-31T01:30:21;12.40;99.90
10051;DHT22;5065;46.942;7.432;2023-10-31T01:32:49;12.40;99.90
10051;DHT22;5065;46.942;7.432;2023-10-31T01:35:17;12.40;99.90
10051;DHT22;5065;46.942;7.432;2023-10-31T01:37:44;12.40;99.90
10051;DHT22;5065;46.942;7.432;2023-10-31T01:40:12;12.40;99.90
10051;DHT22;5065;46.942;7.432;2023-10-31T01:42:40;12.40;99.90
10051;DHT22;5065;46.942;7.432;2023-10-31T01:45:08;12.30;99.90
10051;DHT22;5065;46.942;7.432;2023-10-31T01:47:35;12.40;99.90
10051;DHT22;5065;46.942;7.432;2023-10-31T01:50:03;12.30;99.90
10051;DHT22;5065;46.942;7.432;2023-10-31T01:52:34;12.30;99.90
10051;DHT22;5065;46.942;7.432;2023-10-31T01:55:02;12.50;99.90
10051;DHT22;5065;46.942;7.432;2023-10-31T01:57:30;12.40;99.90
10051;DHT22;5065;46.942;7.432;2023-10-31T01:59:57;12.30;99.90
10051;DHT22;5065;46.942;7.432;2023-10-31T02:02:25;12.30;99.90
10051;DHT22;5065;46.942;7.432;2023-10-31T02:04:53;12.30;99.90
10051;DHT22;5065;46.942;7.432;2023-10-31T02:07:21;12.30;99.90
10051;DHT22;5065;46.942;7.432;2023-10-31T02:09:49;12.30;99.90
10051;DHT22;5065;46.942;7.432;2023-10-31T02:12:34;12.30;99.90
10051;DHT22;5065;46.942;7.432;2023-10-31T02:15:02;12.30;99.90
10051;DHT22;5065;46.942;7.432;2023-10-31T02:17:29;12.30;99.90
10051;DHT22;5065;46.942;7.432;2023-10-31T02:19:56;12.30;99.90
10051;DHT22;5065;46.942;7.432;2023-10-31T02:22:25;12.30;99.90
10051;DHT22;5065;46.942;7.432;2023-10-31T02:24:52;12.30;99.90
10051;DHT22;5065;46.942;7.432;2023-10-31T02:27:20;12.20;99.90
10051;DHT22;5065;46.942;7.432;2023-10-31T02:29:47;12.30;99.90
10051;DHT22;5065;46.942;7.432;2023-10-31T02:32:14;12.20;99.90
10051;DHT22;5065;46.942;7.432;2023-10-31T02:34:41;12.20;99.90
10051;DHT22;5065;46.942;7.432;2023-10-31T02:37:08;12.20;99.90
10051;DHT22;5065;46.942;7.432;2023-10-31T02:39:37;12.30;99.90
10051;DHT22;5065;46.942;7.432;2023-10-31T02:42:05;12.20;99.90
10051;DHT22;5065;46.942;7.432;2023-10-31T02:44:32;12.30;99.90
10051;DHT22;5065;46.942;7.432;2023-10-31T02:46:59;12.20;99.90
10051;DHT22;5065;46.942;7.432;2023-10-31T02:49:26;12.20;99.90
10051;DHT22;5065;46.942;7.432;2023-10-31T02:51:54;12.50;99.90
10051;DHT22;5065;46.942;7.432;2023-10-31T02:54:21;12.20;99.90
10051;DHT22;5065;46.942;7.432;2023-10-31T02:56:49;12.50;99.90
10051;DHT22;5065;46.942;7.432;2023-10-31T02:59:17;12.40;99.90
10051;DHT22;5065;46.942;7.432;2023-10-31T03:01:44;12.30;99.90
10051;DHT22;5065;46.942;7.432;2023-10-31T03:04:11;12.30;99.90
10051;DHT22;5065;46.942;7.432;2023-10-31T03:06:38;12.50;99.90
10051;DHT22;5065;46.942;7.432;2023-10-31T03:09:06;12.30;99.90
10051;DHT22;5065;46.942;7.432;2023-10-31T03:11:34;12.30;99.90
10051;DHT22;5065;46.942;7.432;2023-10-31T03:14:03;12.30;99.90
10051;DHT22;5065;46.942;7.432;2023-10-31T03:16:30;12.30;99.90
10051;DHT22;5065;46.942;7.432;2023-10-31T03:18:58;12.30;99.90
10051;DHT22;5065;46.942;7.432;2023-10-31T03:21:25;12.10;99.90
10051;DHT22;5065;46.942;7.432;2023-10-31T03:23:53;12.30;99.90
10051;DHT22;5065;46.942;7.432;2023-10-31T03:26:21;12.30;99.90
10051;DHT22;5065;46.942;7.432;2023-10-31T03:28:49;12.20;99.90
10051;DHT22;5065;46.942;7.432;2023-10-31T03:31:18;12.20;99.90
10051;DHT22;5065;46.942;7.432;2023-10-31T03:33:45;12.30;99.90
10051;DHT22;5065;46.942;7.432;2023-10-31T03:36:13;12.20;99.90
10051;DHT22;5065;46.942;7.432;2023-10-31T03:38:41;12.40;99.90
10051;DHT22;5065;46.942;7.432;2023-10-31T03:41:08;12.20;99.90
10051;DHT22;5065;46.942;7.432;2023-10-31T03:43:35;12.20;99.90
10051;DHT22;5065;46.942;7.432;2023-10-31T03:46:02;12.20;99.90
10051;DHT22;5065;46.942;7.432;2023-10-31T03:48:31;12.20;99.90
10051;DHT22;5065;46.942;7.432;2023-10-31T03:50:58;12.20;99.90
10051;DHT22;5065;46.942;7.432;2023-10-31T03:53:26;12.30;99.90
10051;DHT22;5065;46.942;7.432;2023-10-31T03:55:53;12.20;99.90
10051;DHT22;5065;46.942;7.432;2023-10-31T03:58:20;12.20;99.90
10051;DHT22;5065;46.942;7.432;2023-10-31T04:00:49;12.20;99.90
10051;DHT22;5065;46.942;7.432;2023-10-31T04:03:17;12.20;99.90
10051;DHT22;5065;46.942;7.432;2023-10-31T04:05:45;12.20;99.90
10051;DHT22;5065;46.942;7.432;2023-10-31T04:08:12;12.20;99.90
10051;DHT22;5065;46.942;7.432;2023-10-31T04:10:40;12.20;99.90
10051;DHT22;5065;46.942;7.432;2023-10-31T04:13:07;12.10;99.90
10051;DHT22;5065;46.942;7.432;2023-10-31T04:15:34;12.20;99.90
10051;DHT22;5065;46.942;7.432;2023-10-31T04:18:01;12.20;99.90
10051;DHT22;5065;46.942;7.432;2023-10-31T04:20:29;12.20;99.90
10051;DHT22;5065;46.942;7.432;2023-10-31T04:22:58;12.20;99.90
10051;DHT22;5065;46.942;7.432;2023-10-31T04:25:25;12.20;99.90
10051;DHT22;5065;46.942;7.432;2023-10-31T04:27:54;12.30;99.90
10051;DHT22;5065;46.942;7.432;2023-10-31T04:30:22;12.20;99.90
10051;DHT22;5065;46.942;7.432;2023-10-31T04:32:50;12.20;99.90
10051;DHT22;5065;46.942;7.432;2023-10-31T04:35:17;12.40;99.90
10051;DHT22;5065;46.942;7.432;2023-10-31T04:37:44;12.30;99.90
10051;DHT22;5065;46.942;7.432;2023-10-31T04:40:14;12.30;99.90
10051;DHT22;5065;46.942;7.432;2023-10-31T04:42:42;12.20;99.90
10051;DHT22;5065;46.942;7.432;2023-10-31T04:45:09;12.30;99.90
10051;DHT22;5065;46.942;7.432;2023-10-31T04:47:39;12.20;99.90
10051;DHT22;5065;46.942;7.432;2023-10-31T04:50:07;12.20;99.90
10051;DHT22;5065;46.942;7.432;2023-10-31T04:52:35;12.20;99.90
10051;DHT22;5065;46.942;7.432;2023-10-31T04:55:02;12.20;99.90
10051;DHT22;5065;46.942;7.432;2023-10-31T04:57:31;12.00;99.90
10051;DHT22;5065;46.942;7.432;2023-10-31T04:59:58;12.30;99.90
10051;DHT22;5065;46.942;7.432;2023-10-31T05:02:26;12.30;99.90
10051;DHT22;5065;46.942;7.432;2023-10-31T05:04:54;12.30;99.90
10051;DHT22;5065;46.942;7.432;2023-10-31T05:07:21;12.30;99.90
10051;DHT22;5065;46.942;7.432;2023-10-31T05:09:48;12.20;99.90
10051;DHT22;5065;46.942;7.432;2023-10-31T05:12:15;12.20;99.90
10051;DHT22;5065;46.942;7.432;2023-10-31T05:14:44;12.20;99.90
10051;DHT22;5065;46.942;7.432;2023-10-31T05:17:11;12.30;99.90
10051;DHT22;5065;46.942;7.432;2023-10-31T05:19:39;12.20;99.90
10051;DHT22;5065;46.942;7.432;2023-10-31T05:22:07;12.30;99.90
10051;DHT22;5065;46.942;7.432;2023-10-31T05:24:34;12.20;99.90
10051;DHT22;5065;46.942;7.432;2023-10-31T05:27:02;12.20;99.90
10051;DHT22;5065;46.942;7.432;2023-10-31T05:29:30;12.20;99.90
10051;DHT22;5065;46.942;7.432;2023-10-31T05:32:01;12.20;99.90
10051;DHT22;5065;46.942;7.432;2023-10-31T05:34:28;12.10;99.90
10051;DHT22;5065;46.942;7.432;2023-10-31T05:36:58;12.20;99.90
10051;DHT22;5065;46.942;7.432;2023-10-31T05:39:25;12.20;99.90
10051;DHT22;5065;46.942;7.432;2023-10-31T05:41:53;12.20;99.90
10051;DHT22;5065;46.942;7.432;2023-10-31T05:44:20;12.20;99.90
10051;DHT22;5065;46.942;7.432;2023-10-31T05:46:47;12.20;99.90
10051;DHT22;5065;46.942;7.432;2023-10-31T05:49:16;12.30;99.90
10051;DHT22;5065;46.942;7.432;2023-10-31T05:51:45;12.20;99.90
10051;DHT22;5065;46.942;7.432;2023-10-31T05:54:16;12.20;99.90
10051;DHT22;5065;46.942;7.432;2023-10-31T05:56:43;12.40;99.90
10051;DHT22;5065;46.942;7.432;2023-10-31T05:59:11;12.20;99.90
10051;DHT22;5065;46.942;7.432;2023-10-31T06:01:37;12.20;99.90
10051;DHT22;5065;46.942;7.432;2023-10-31T06:04:04;12.20;99.90
10051;DHT22;5065;46.942;7.432;2023-10-31T06:06:36;12.30;99.90
10051;DHT22;5065;46.942;7.432;2023-10-31T06:09:04;12.20;99.90
10051;DHT22;5065;46.942;7.432;2023-10-31T06:11:31;12.20;99.90
10051;DHT22;5065;46.942;7.432;2023-10-31T06:13:59;12.10;99.90
10051;DHT22;5065;46.942;7.432;2023-10-31T06:16:26;12.20;99.90
10051;DHT22;5065;46.942;7.432;2023-10-31T06:18:53;12.30;99.90
10051;DHT22;5065;46.942;7.432;2023-10-31T06:21:20;12.20;99.90
10051;DHT22;5065;46.942;7.432;2023-10-31T06:23:49;12.20;99.90
10051;DHT22;5065;46.942;7.432;2023-10-31T06:26:16;12.20;99.90
10051;DHT22;5065;46.942;7.432;2023-10-31T06:28:47;12.20;99.90
10051;DHT22;5065;46.942;7.432;2023-10-31T06:31:16;12.20;99.90
10051;DHT22;5065;46.942;7.432;2023-10-31T06:33:44;12.20;99.90
10051;DHT22;5065;46.942;7.432;2023-10-31T06:36:11;12.20;99.90
10051;DHT22;5065;46.942;7.432;2023-10-31T06:38:39;12.20;99.90
10051;DHT22;5065;46.942;7.432;2023-10-31T06:41:08;12.20;99.90
10051;DHT22;5065;46.942;7.432;2023-10-31T06:43:36;12.20;99.90
10051;DHT22;5065;46.942;7.432;2023-10-31T06:46:04;12.10;99.90
10051;DHT22;5065;46.942;7.432;2023-10-31T06:48:32;12.20;99.90
10051;DHT22;5065;46.942;7.432;2023-10-31T06:51:00;12.20;99.90
10051;DHT22;5065;46.942;7.432;2023-10-31T06:53:27;12.10;99.90
10051;DHT22;5065;46.942;7.432;2023-10-31T06:55:54;12.10;99.90
10051;DHT22;5065;46.942;7.432;2023-10-31T06:58:24;12.30;99.90
10051;DHT22;5065;46.942;7.432;2023-10-31T07:00:51;12.30;99.90
10051;DHT22;5065;46.942;7.432;2023-10-31T07:03:20;12.10;99.90
10051;DHT22;5065;46.942;7.432;2023-10-31T07:05:47;12.20;99.90
10051;DHT22;5065;46.942;7.432;2023-10-31T07:08:14;12.10;99.90
10051;DHT22;5065;46.942;7.432;2023-10-31T07:10:42;12.20;99.90
10051;DHT22;5065;46.942;7.432;2023-10-31T07:13:14;12.20;99.90
10051;DHT22;5065;46.942;7.432;2023-10-31T07:15:46;12.20;99.90
10051;DHT22;5065;46.942;7.432;2023-10-31T07:18:13;12.20;99.90
10051;DHT22;5065;46.942;7.432;2023-10-31T07:20:40;12.20;99.90
10051;DHT22;5065;46.942;7.432;2023-10-31T07:23:07;12.30;99.90
10051;DHT22;5065;46.942;7.432;2023-10-31T07:25:35;12.30;99.90
10051;DHT22;5065;46.942;7.432;2023-10-31T07:28:02;12.50;99.90
10051;DHT22;5065;46.942;7.432;2023-10-31T07:30:29;12.30;99.90
10051;DHT22;5065;46.942;7.432;2023-10-31T07:32:58;12.30;99.90
10051;DHT22;5065;46.942;7.432;2023-10-31T07:35:25;12.30;99.90
10051;DHT22;5065;46.942;7.432;2023-10-31T07:37:52;12.20;99.90
10051;DHT22;5065;46.942;7.432;2023-10-31T07:40:19;12.60;99.90
10051;DHT22;5065;46.942;7.432;2023-10-31T07:42:47;12.30;99.90
10051;DHT22;5065;46.942;7.432;2023-10-31T07:45:14;12.40;99.90
10051;DHT22;5065;46.942;7.432;2023-10-31T07:47:43;12.40;99.90
10051;DHT22;5065;46.942;7.432;2023-10-31T07:50:11;12.40;99.90
10051;DHT22;5065;46.942;7.432;2023-10-31T07:52:39;12.30;99.90
10051;DHT22;5065;46.942;7.432;2023-10-31T07:55:07;12.40;99.90
10051;DHT22;5065;46.942;7.432;2023-10-31T07:57:40;12.30;99.90
10051;DHT22;5065;46.942;7.432;2023-10-31T08:00:11;12.30;99.90
10051;DHT22;5065;46.942;7.432;2023-10-31T08:02:39;12.30;99.90
10051;DHT22;5065;46.942;7.432;2023-10-31T08:05:07;12.30;99.90
10051;DHT22;5065;46.942;7.432;2023-10-31T08:07:37;12.30;99.90
10051;DHT22;5065;46.942;7.432;2023-10-31T08:10:06;12.30;99.90
10051;DHT22;5065;46.942;7.432;2023-10-31T08:12:34;12.40;99.90
10051;DHT22;5065;46.942;7.432;2023-10-31T08:15:01;12.40;99.90
10051;DHT22;5065;46.942;7.432;2023-10-31T08:17:28;12.40;99.90
10051;DHT22;5065;46.942;7.432;2023-10-31T08:19:55;12.50;99.90
10051;DHT22;5065;46.942;7.432;2023-10-31T08:22:23;12.50;99.90
10051;DHT22;5065;46.942;7.432;2023-10-31T08:24:52;12.60;99.90
10051;DHT22;5065;46.942;7.432;2023-10-31T08:27:19;12.60;99.90
10051;DHT22;5065;46.942;7.432;2023-10-31T08:29:49;12.70;99.90
10051;DHT22;5065;46.942;7.432;2023-10-31T08:32:16;12.60;99.90
10051;DHT22;5065;46.942;7.432;2023-10-31T08:34:48;12.70;99.90
10051;DHT22;5065;46.942;7.432;2023-10-31T08:37:18;12.80;99.90
10051;DHT22;5065;46.942;7.432;2023-10-31T08:39:45;12.90;99.90
10051;DHT22;5065;46.942;7.432;2023-10-31T08:42:15;13.00;99.90
10051;DHT22;5065;46.942;7.432;2023-10-31T08:44:43;13.00;99.90
10051;DHT22;5065;46.942;7.432;2023-10-31T08:47:10;13.10;99.90
10051;DHT22;5065;46.942;7.432;2023-10-31T08:49:39;13.20;99.90
10051;DHT22;5065;46.942;7.432;2023-10-31T08:52:06;13.30;99.90
10051;DHT22;5065;46.942;7.432;2023-10-31T08:54:35;13.50;99.90
10051;DHT22;5065;46.942;7.432;2023-10-31T08:57:02;13.40;99.90
10051;DHT22;5065;46.942;7.432;2023-10-31T08:59:34;13.80;99.90
10051;DHT22;5065;46.942;7.432;2023-10-31T09:02:01;13.90;99.90
10051;DHT22;5065;46.942;7.432;2023-10-31T09:04:29;14.00;99.90
10051;DHT22;5065;46.942;7.432;2023-10-31T09:07:01;14.00;99.90
10051;DHT22;5065;46.942;7.432;2023-10-31T09:09:28;14.10;99.90
10051;DHT22;5065;46.942;7.432;2023-10-31T09:11:58;14.20;99.90
10051;DHT22;5065;46.942;7.432;2023-10-31T09:14:26;14.20;99.90
10051;DHT22;5065;46.942;7.432;2023-10-31T09:16:54;14.20;99.90
10051;DHT22;5065;46.942;7.432;2023-10-31T09:19:22;14.30;99.90
10051;DHT22;5065;46.942;7.432;2023-10-31T09:21:49;14.40;99.90
10051;DHT22;5065;46.942;7.432;2023-10-31T09:24:21;14.40;99.90
10051;DHT22;5065;46.942;7.432;2023-10-31T09:26:49;14.50;99.90
10051;DHT22;5065;46.942;7.432;2023-10-31T09:29:21;14.60;99.90
10051;DHT22;5065;46.942;7.432;2023-10-31T09:31:49;14.70;99.90
10051;DHT22;5065;46.942;7.432;2023-10-31T09:34:17;14.80;99.90
10051;DHT22;5065;46.942;7.432;2023-10-31T09:36:45;14.90;99.90
10051;DHT22;5065;46.942;7.432;2023-10-31T09:39:12;14.90;99.90
10051;DHT22;5065;46.942;7.432;2023-10-31T09:41:39;14.90;99.90
10051;DHT22;5065;46.942;7.432;2023-10-31T09:44:07;14.90;99.90
10051;DHT22;5065;46.942;7.432;2023-10-31T09:46:37;15.00;99.90
10051;DHT22;5065;46.942;7.432;2023-10-31T09:49:06;14.90;99.90
10051;DHT22;5065;46.942;7.432;2023-10-31T09:51:37;14.90;99.90
10051;DHT22;5065;46.942;7.432;2023-10-31T09:54:08;14.90;99.90
10051;DHT22;5065;46.942;7.432;2023-10-31T09:56:36;14.80;99.90
10051;DHT22;5065;46.942;7.432;2023-10-31T09:59:07;14.80;99.90
10051;DHT22;5065;46.942;7.432;2023-10-31T10:01:35;14.80;99.90
10051;DHT22;5065;46.942;7.432;2023-10-31T10:04:05;14.80;99.90
10051;DHT22;5065;46.942;7.432;2023-10-31T10:06:32;14.80;99.90
10051;DHT22;5065;46.942;7.432;2023-10-31T10:09:02;14.80;99.90
10051;DHT22;5065;46.942;7.432;2023-10-31T10:11:33;14.80;99.90
10051;DHT22;5065;46.942;7.432;2023-10-31T10:14:00;14.90;99.90
10051;DHT22;5065;46.942;7.432;2023-10-31T10:16:29;14.90;99.90
10051;DHT22;5065;46.942;7.432;2023-10-31T10:18:57;14.90;99.90
10051;DHT22;5065;46.942;7.432;2023-10-31T10:21:24;14.90;99.90
10051;DHT22;5065;46.942;7.432;2023-10-31T10:23:52;14.90;99.90
10051;DHT22;5065;46.942;7.432;2023-10-31T10:26:22;14.90;99.90
10051;DHT22;5065;46.942;7.432;2023-10-31T10:28:52;14.90;99.90
10051;DHT22;5065;46.942;7.432;2023-10-31T10:31:20;14.90;99.90
10051;DHT22;5065;46.942;7.432;2023-10-31T10:33:51;15.00;99.90
10051;DHT22;5065;46.942;7.432;2023-10-31T10:36:18;15.00;99.90
10051;DHT22;5065;46.942;7.432;2023-10-31T10:38:47;15.10;99.90
10051;DHT22;5065;46.942;7.432;2023-10-31T10:41:23;15.10;99.90
10051;DHT22;5065;46.942;7.432;2023-10-31T10:43:56;15.10;99.90
10051;DHT22;5065;46.942;7.432;2023-10-31T10:46:25;15.10;99.90
10051;DHT22;5065;46.942;7.432;2023-10-31T10:48:55;15.10;99.90
10051;DHT22;5065;46.942;7.432;2023-10-31T10:51:28;15.10;99.90
10051;DHT22;5065;46.942;7.432;2023-10-31T10:54:05;15.10;99.90
10051;DHT22;5065;46.942;7.432;2023-10-31T10:56:39;15.20;99.90
10051;DHT22;5065;46.942;7.432;2023-10-31T10:59:12;15.20;99.90
10051;DHT22;5065;46.942;7.432;2023-10-31T11:01:41;15.30;99.90
10051;DHT22;5065;46.942;7.432;2023-10-31T11:04:13;15.30;99.90
10051;DHT22;5065;46.942;7.432;2023-10-31T11:06:44;15.30;99.90
10051;DHT22;5065;46.942;7.432;2023-10-31T11:09:13;15.30;99.90
10051;DHT22;5065;46.942;7.432;2023-10-31T11:11:43;15.20;99.90
10051;DHT22;5065;46.942;7.432;2023-10-31T11:14:15;15.20;99.90
10051;DHT22;5065;46.942;7.432;2023-10-31T11:16:45;15.20;99.90
10051;DHT22;5065;46.942;7.432;2023-10-31T11:19:15;15.10;99.90
10051;DHT22;5065;46.942;7.432;2023-10-31T11:21:57;15.00;99.90
10051;DHT22;5065;46.942;7.432;2023-10-31T11:24:26;15.00;99.90
10051;DHT22;5065;46.942;7.432;2023-10-31T11:27:00;15.00;99.90
10051;DHT22;5065;46.942;7.432;2023-10-31T11:29:28;14.90;99.90
10051;DHT22;5065;46.942;7.432;2023-10-31T11:31:58;14.90;99.90
10051;DHT22;5065;46.942;7.432;2023-10-31T11:34:27;14.90;99.90
10051;DHT22;5065;46.942;7.432;2023-10-31T11:37:22;14.90;99.90
10051;DHT22;5065;46.942;7.432;2023-10-31T11:40:18;14.80;99.90
10051;DHT22;5065;46.942;7.432;2023-10-31T11:42:57;14.90;99.90
10051;DHT22;5065;46.942;7.432;2023-10-31T11:45:36;14.90;99.90
10051;DHT22;5065;46.942;7.432;2023-10-31T11:48:04;14.80;99.90
10051;DHT22;5065;46.942;7.432;2023-10-31T11:50:35;14.70;99.90
10051;DHT22;5065;46.942;7.432;2023-10-31T11:53:07;14.70;99.90
10051;DHT22;5065;46.942;7.432;2023-10-31T11:55:36;14.70;99.90
10051;DHT22;5065;46.942;7.432;2023-10-31T11:58:15;14.70;99.90
10051;DHT22;5065;46.942;7.432;2023-10-31T12:00:44;14.70;99.90
10051;DHT22;5065;46.942;7.432;2023-10-31T12:03:11;14.60;99.90
10051;DHT22;5065;46.942;7.432;2023-10-31T12:05:39;14.70;99.90
10051;DHT22;5065;46.942;7.432;2023-10-31T12:08:09;14.60;99.90
10051;DHT22;5065;46.942;7.432;2023-10-31T12:10:36;14.60;99.90
10051;DHT22;5065;46.942;7.432;2023-10-31T12:13:03;14.60;99.90
10051;DHT22;5065;46.942;7.432;2023-10-31T12:15:35;14.60;99.90
10051;DHT22;5065;46.942;7.432;2023-10-31T12:18:02;14.60;99.90
10051;DHT22;5065;46.942;7.432;2023-10-31T12:20:32;14.50;99.90
10051;DHT22;5065;46.942;7.432;2023-10-31T12:23:03;14.40;99.90
10051;DHT22;5065;46.942;7.432;2023-10-31T12:25:31;14.50;99.90
10051;DHT22;5065;46.942;7.432;2023-10-31T12:28:01;14.40;99.90
10051;DHT22;5065;46.942;7.432;2023-10-31T12:30:28;14.30;99.90
10051;DHT22;5065;46.942;7.432;2023-10-31T12:32:57;14.30;99.90
10051;DHT22;5065;46.942;7.432;2023-10-31T12:35:26;14.30;99.90
10051;DHT22;5065;46.942;7.432;2023-10-31T12:37:56;14.20;99.90
10051;DHT22;5065;46.942;7.432;2023-10-31T12:40:24;14.10;99.90
10051;DHT22;5065;46.942;7.432;2023-10-31T12:42:52;14.10;99.90
10051;DHT22;5065;46.942;7.432;2023-10-31T12:45:20;14.10;99.90
10051;DHT22;5065;46.942;7.432;2023-10-31T12:48:01;14.00;99.90
10051;DHT22;5065;46.942;7.432;2023-10-31T12:50:30;13.80;99.90
10051;DHT22;5065;46.942;7.432;2023-10-31T12:52:59;13.80;99.90
10051;DHT22;5065;46.942;7.432;2023-10-31T12:55:31;13.70;99.90
10051;DHT22;5065;46.942;7.432;2023-10-31T12:58:04;13.70;99.90
10051;DHT22;5065;46.942;7.432;2023-10-31T13:00:33;13.60;99.90
10051;DHT22;5065;46.942;7.432;2023-10-31T13:03:03;13.60;99.90
10051;DHT22;5065;46.942;7.432;2023-10-31T13:05:31;13.60;99.90
10051;DHT22;5065;46.942;7.432;2023-10-31T13:08:13;13.60;99.90
10051;DHT22;5065;46.942;7.432;2023-10-31T13:10:41;13.60;99.90
10051;DHT22;5065;46.942;7.432;2023-10-31T13:13:09;13.60;99.90
10051;DHT22;5065;46.942;7.432;2023-10-31T13:15:38;13.60;99.90
10051;DHT22;5065;46.942;7.432;2023-10-31T13:18:06;13.60;99.90
10051;DHT22;5065;46.942;7.432;2023-10-31T13:20:37;13.70;99.90
10051;DHT22;5065;46.942;7.432;2023-10-31T13:23:07;13.70;99.90
10051;DHT22;5065;46.942;7.432;2023-10-31T13:25:34;13.70;99.90
10051;DHT22;5065;46.942;7.432;2023-10-31T13:28:02;13.80;99.90
10051;DHT22;5065;46.942;7.432;2023-10-31T13:30:34;13.70;99.90
10051;DHT22;5065;46.942;7.432;2023-10-31T13:33:01;13.80;99.90
10051;DHT22;5065;46.942;7.432;2023-10-31T13:35:30;13.80;99.90
10051;DHT22;5065;46.942;7.432;2023-10-31T13:37:58;13.90;99.90
10051;DHT22;5065;46.942;7.432;2023-10-31T13:40:29;13.80;99.90
10051;DHT22;5065;46.942;7.432;2023-10-31T13:42:56;13.90;99.90
10051;DHT22;5065;46.942;7.432;2023-10-31T13:45:23;13.80;99.90
10051;DHT22;5065;46.942;7.432;2023-10-31T13:47:51;13.80;99.90
10051;DHT22;5065;46.942;7.432;2023-10-31T13:50:18;13.80;99.90
10051;DHT22;5065;46.942;7.432;2023-10-31T13:52:47;13.80;99.90
10051;DHT22;5065;46.942;7.432;2023-10-31T13:55:15;13.80;99.90
10051;DHT22;5065;46.942;7.432;2023-10-31T13:57:42;13.80;99.90
10051;DHT22;5065;46.942;7.432;2023-10-31T14:00:11;13.80;99.90
10051;DHT22;5065;46.942;7.432;2023-10-31T14:02:39;13.80;99.90
10051;DHT22;5065;46.942;7.432;2023-10-31T14:05:07;13.70;99.90
10051;DHT22;5065;46.942;7.432;2023-10-31T14:07:34;13.70;99.90
10051;DHT22;5065;46.942;7.432;2023-10-31T14:10:03;13.70;99.90
10051;DHT22;5065;46.942;7.432;2023-10-31T14:12:31;13.70;99.90
10051;DHT22;5065;46.942;7.432;2023-10-31T14:14:58;13.70;99.90
10051;DHT22;5065;46.942;7.432;2023-10-31T14:17:25;13.50;99.90
10051;DHT22;5065;46.942;7.432;2023-10-31T14:19:52;13.40;99.90
10051;DHT22;5065;46.942;7.432;2023-10-31T14:22:20;13.40;99.90
10051;DHT22;5065;46.942;7.432;2023-10-31T14:24:47;13.40;99.90
10051;DHT22;5065;46.942;7.432;2023-10-31T14:27:16;13.40;99.90
10051;DHT22;5065;46.942;7.432;2023-10-31T14:29:44;13.50;99.90
10051;DHT22;5065;46.942;7.432;2023-10-31T14:32:11;13.40;99.90
10051;DHT22;5065;46.942;7.432;2023-10-31T14:34:38;13.40;99.90
10051;DHT22;5065;46.942;7.432;2023-10-31T14:37:06;13.40;99.90
10051;DHT22;5065;46.942;7.432;2023-10-31T14:39:33;13.40;99.90
10051;DHT22;5065;46.942;7.432;2023-10-31T14:42:00;13.40;99.90
10051;DHT22;5065;46.942;7.432;2023-10-31T14:44:29;13.30;99.90
10051;DHT22;5065;46.942;7.432;2023-10-31T14:46:56;13.30;99.90
10051;DHT22;5065;46.942;7.432;2023-10-31T14:49:23;13.30;99.90
10051;DHT22;5065;46.942;7.432;2023-10-31T14:51:51;13.30;99.90
10051;DHT22;5065;46.942;7.432;2023-10-31T14:54:22;13.30;99.90
10051;DHT22;5065;46.942;7.432;2023-10-31T14:56:51;13.30;99.90
10051;DHT22;5065;46.942;7.432;2023-10-31T14:59:18;13.40;99.90
10051;DHT22;5065;46.942;7.432;2023-10-31T15:01:47;13.30;99.90
10051;DHT22;5065;46.942;7.432;2023-10-31T15:04:14;13.30;99.90
10051;DHT22;5065;46.942;7.432;2023-10-31T15:06:42;13.30;99.90
10051;DHT22;5065;46.942;7.432;2023-10-31T15:09:10;13.40;99.90
10051;DHT22;5065;46.942;7.432;2023-10-31T15:11:39;13.40;99.90
10051;DHT22;5065;46.942;7.432;2023-10-31T15:14:06;13.40;99.90
10051;DHT22;5065;46.942;7.432;2023-10-31T15:16:33;13.40;99.90
10051;DHT22;5065;46.942;7.432;2023-10-31T15:19:03;13.40;99.90
10051;DHT22;5065;46.942;7.432;2023-10-31T15:21:30;13.40;99.90
10051;DHT22;5065;46.942;7.432;2023-10-31T15:23:58;13.40;99.90
10051;DHT22;5065;46.942;7.432;2023-10-31T15:26:26;13.40;99.90
10051;DHT22;5065;46.942;7.432;2023-10-31T15:28:54;13.40;99.90
10051;DHT22;5065;46.942;7.432;2023-10-31T15:31:22;13.40;99.90
10051;DHT22;5065;46.942;7.432;2023-10-31T15:33:49;13.40;99.90
10051;DHT22;5065;46.942;7.432;2023-10-31T15:36:18;13.40;99.90
10051;DHT22;5065;46.942;7.432;2023-10-31T15:38:45;13.40;99.90
10051;DHT22;5065;46.942;7.432;2023-10-31T15:41:16;13.40;99.90
10051;DHT22;5065;46.942;7.432;2023-10-31T15:43:45;13.40;99.90
10051;DHT22;5065;46.942;7.432;2023-10-31T15:46:12;13.40;99.90
10051;DHT22;5065;46.942;7.432;2023-10-31T15:48:40;13.40;99.90
10051;DHT22;5065;46.942;7.432;2023-10-31T15:51:07;13.30;99.90
10051;DHT22;5065;46.942;7.432;2023-10-31T15:53:37;13.30;99.90